sensor_id;sensor_type;location;lat;lon;timestamp;pressure;altitude;pressure_sealevel;temperature;humidity
16100;BME280;8154;50.830;12.082;2023-11-21T00:00:08;98750.22;;;22.67;38.22
16100;BME280;8154;50.830;12.082;2023-11-21T00:02:38;98758.00;;;22.69;38.53
16100;BME280;8154;50.830;12.082;2023-11-21T00:05:10;98759.84;;;22.68;38.39
16100;BME280;8154;50.830;12.082;2023-11-21T00:07:37;98689.78;;;22.35;38.19
16100;BME280;8154;50.830;12.082;2023-11-21T00:10:05;98752.25;;;22.72;38.46
16100;BME280;8154;50.830;12.082;2023-11-21T00:12:32;98740.34;;;22.68;38.22
16100;BME280;8154;50.830;12.082;2023-11-21T00:14:59;98751.84;;;22.82;38.20
16100;BME280;8154;50.830;12.082;2023-11-21T00:17:25;98746.50;;;22.82;38.23
16100;BME280;8154;50.830;12.082;2023-11-21T00:19:51;98739.94;;;22.84;37.88
16100;BME280;8154;50.830;12.082;2023-11-21T00:22:21;98725.00;;;22.63;38.21
16100;BME280;8154;50.830;12.082;2023-11-21T00:24:47;98751.41;;;22.78;38.06
16100;BME280;8154;50.830;12.082;2023-11-21T00:27:13;98749.53;;;22.92;37.84
16100;BME280;8154;50.830;12.082;2023-11-21T00:29:40;98761.59;;;23.01;37.92
16100;BME280;8154;50.830;12.082;2023-11-21T00:32:07;98756.91;;;23.03;37.73
16100;BME280;8154;50.830;12.082;2023-11-21T00:34:33;98750.59;;;22.91;37.89
16100;BME280;8154;50.830;12.082;2023-11-21T00:37:00;98759.00;;;22.88;38.03
16100;BME280;8154;50.830;12.082;2023-11-21T00:39:27;98761.25;;;22.84;37.87
16100;BME280;8154;50.830;12.082;2023-11-21T00:41:53;98752.47;;;22.77;38.39
16100;BME280;8154;50.830;12.082;2023-11-21T00:44:20;98762.50;;;22.75;38.22
16100;BME280;8154;50.830;12.082;2023-11-21T00:46:46;98762.09;;;22.78;38.21
16100;BME280;8154;50.830;12.082;2023-11-21T00:49:12;98755.50;;;22.74;38.33
16100;BME280;8154;50.830;12.082;2023-11-21T00:51:39;98759.41;;;22.78;38.17
16100;BME280;8154;50.830;12.082;2023-11-21T00:54:05;98753.44;;;22.89;37.90
16100;BME280;8154;50.830;12.082;2023-11-21T00:56:32;98762.66;;;22.93;37.90
16100;BME280;8154;50.830;12.082;2023-11-21T00:58:59;98770.66;;;23.00;37.94
16100;BME280;8154;50.830;12.082;2023-11-21T01:01:26;98775.97;;;22.87;37.97
16100;BME280;8154;50.830;12.082;2023-11-21T01:03:52;98776.59;;;22.82;38.26
16100;BME280;8154;50.830;12.082;2023-11-21T01:06:18;98772.47;;;22.93;37.86
16100;BME280;8154;50.830;12.082;2023-11-21T01:08:49;98774.75;;;22.96;37.68
16100;BME280;8154;50.830;12.082;2023-11-21T01:11:15;98768.19;;;22.85;38.04
16100;BME280;8154;50.830;12.082;2023-11-21T01:13:42;98771.69;;;22.79;38.15
16100;BME280;8154;50.830;12.082;2023-11-21T01:16:08;98773.56;;;22.79;38.29
16100;BME280;8154;50.830;12.082;2023-11-21T01:18:35;98778.69;;;22.80;38.06
16100;BME280;8154;50.830;12.082;2023-11-21T01:21:02;98773.34;;;22.73;38.30
16100;BME280;8154;50.830;12.082;2023-11-21T01:23:28;98775.59;;;22.77;38.38
16100;BME280;8154;50.830;12.082;2023-11-21T01:25:56;98780.09;;;22.69;38.39
16100;BME280;8154;50.830;12.082;2023-11-21T01:28:23;98765.16;;;22.68;38.33
16100;BME280;8154;50.830;12.082;2023-11-21T01:30:49;98784.00;;;22.73;38.16
16100;BME280;8154;50.830;12.082;2023-11-21T01:33:15;98759.41;;;22.65;38.31
16100;BME280;8154;50.830;12.082;2023-11-21T01:35:43;98780.94;;;22.83;38.21
16100;BME280;8154;50.830;12.082;2023-11-21T01:38:09;98781.72;;;22.90;37.94
16100;BME280;8154;50.830;12.082;2023-11-21T01:40:35;98776.81;;;22.94;37.91
16100;BME280;8154;50.830;12.082;2023-11-21T01:43:01;98784.16;;;23.05;37.84
16100;BME280;8154;50.830;12.082;2023-11-21T01:45:30;98772.31;;;22.88;37.82
16100;BME280;8154;50.830;12.082;2023-11-21T01:48:01;98794.22;;;22.90;37.83
16100;BME280;8154;50.830;12.082;2023-11-21T01:50:29;98785.22;;;22.84;38.06
16100;BME280;8154;50.830;12.082;2023-11-21T01:52:55;98790.75;;;22.76;38.35
16100;BME280;8154;50.830;12.082;2023-11-21T01:55:21;98788.31;;;22.74;38.18
16100;BME280;8154;50.830;12.082;2023-11-21T01:57:48;98788.72;;;22.78;38.12
16100;BME280;8154;50.830;12.082;2023-11-21T02:00:14;98789.97;;;22.76;38.15
16100;BME280;8154;50.830;12.082;2023-11-21T02:02:52;98799.38;;;22.78;38.37
16100;BME280;8154;50.830;12.082;2023-11-21T02:05:19;98793.22;;;22.77;38.28
16100;BME280;8154;50.830;12.082;2023-11-21T02:07:46;98800.00;;;22.73;38.17
16100;BME280;8154;50.830;12.082;2023-11-21T02:10:15;98801.84;;;22.80;38.06
16100;BME280;8154;50.830;12.082;2023-11-21T02:12:42;98801.00;;;22.72;38.36
16100;BME280;8154;50.830;12.082;2023-11-21T02:15:10;98806.34;;;22.72;38.44
16100;BME280;8154;50.830;12.082;2023-11-21T02:17:43;98805.91;;;22.89;38.11
16100;BME280;8154;50.830;12.082;2023-11-21T02:20:11;98799.13;;;22.99;37.81
16100;BME280;8154;50.830;12.082;2023-11-21T02:22:41;98800.16;;;22.98;37.91
16100;BME280;8154;50.830;12.082;2023-11-21T02:25:08;98797.50;;;22.85;38.00
16100;BME280;8154;50.830;12.082;2023-11-21T02:27:35;98801.41;;;22.83;38.10
16100;BME280;8154;50.830;12.082;2023-11-21T02:30:02;98799.38;;;22.85;38.14
16100;BME280;8154;50.830;12.082;2023-11-21T02:32:30;98797.13;;;22.75;38.37
16100;BME280;8154;50.830;12.082;2023-11-21T02:34:59;98793.63;;;22.74;38.18
16100;BME280;8154;50.830;12.082;2023-11-21T02:37:33;98802.03;;;22.71;38.33
16100;BME280;8154;50.830;12.082;2023-11-21T02:40:01;98790.59;;;22.64;38.34
16100;BME280;8154;50.830;12.082;2023-11-21T02:42:32;98798.97;;;22.74;38.07
16100;BME280;8154;50.830;12.082;2023-11-21T02:44:58;98789.97;;;22.62;38.27
16100;BME280;8154;50.830;12.082;2023-11-21T02:47:25;98809.41;;;22.76;38.43
16100;BME280;8154;50.830;12.082;2023-11-21T02:49:52;98801.00;;;22.86;38.19
16100;BME280;8154;50.830;12.082;2023-11-21T02:52:18;98802.03;;;22.78;38.14
16100;BME280;8154;50.830;12.082;2023-11-21T02:54:45;98807.16;;;22.73;38.25
16100;BME280;8154;50.830;12.082;2023-11-21T02:57:11;98797.34;;;22.80;38.28
16100;BME280;8154;50.830;12.082;2023-11-21T02:59:37;98788.09;;;22.83;38.07
16100;BME280;8154;50.830;12.082;2023-11-21T03:02:09;98808.41;;;22.77;38.42
16100;BME280;8154;50.830;12.082;2023-11-21T03:04:35;98803.28;;;22.69;38.31
16100;BME280;8154;50.830;12.082;2023-11-21T03:07:01;98802.44;;;22.75;38.19
16100;BME280;8154;50.830;12.082;2023-11-21T03:09:27;98807.56;;;22.77;38.33
16100;BME280;8154;50.830;12.082;2023-11-21T03:11:53;98809.19;;;22.71;38.38
16100;BME280;8154;50.830;12.082;2023-11-21T03:14:19;98814.31;;;22.72;38.46
16100;BME280;8154;50.830;12.082;2023-11-21T03:16:47;98807.56;;;22.77;38.15
16100;BME280;8154;50.830;12.082;2023-11-21T03:19:16;98812.06;;;22.76;38.42
16100;BME280;8154;50.830;12.082;2023-11-21T03:21:43;98809.63;;;22.74;38.30
16100;BME280;8154;50.830;12.082;2023-11-21T03:24:09;98812.06;;;22.76;38.33
16100;BME280;8154;50.830;12.082;2023-11-21T03:26:36;98800.59;;;22.89;38.08
16100;BME280;8154;50.830;12.082;2023-11-21T03:29:04;98806.94;;;22.94;38.01
16100;BME280;8154;50.830;12.082;2023-11-21T03:31:31;98812.44;;;22.99;37.96
16100;BME280;8154;50.830;12.082;2023-11-21T03:33:57;98809.56;;;23.01;37.60
16100;BME280;8154;50.830;12.082;2023-11-21T03:36:25;98794.88;;;22.79;37.92
16100;BME280;8154;50.830;12.082;2023-11-21T03:38:51;98823.16;;;22.86;38.03
16100;BME280;8154;50.830;12.082;2023-11-21T03:41:17;98824.78;;;22.81;38.13
16100;BME280;8154;50.830;12.082;2023-11-21T03:43:45;98822.94;;;22.74;38.19
16100;BME280;8154;50.830;12.082;2023-11-21T03:46:11;98817.59;;;22.68;38.41
16100;BME280;8154;50.830;12.082;2023-11-21T03:48:38;98823.75;;;22.68;38.53
16100;BME280;8154;50.830;12.082;2023-11-21T03:51:05;98822.72;;;22.69;38.57
16100;BME280;8154;50.830;12.082;2023-11-21T03:53:31;98827.44;;;22.74;38.25
16100;BME280;8154;50.830;12.082;2023-11-21T03:55:58;98826.22;;;22.77;38.35
16100;BME280;8154;50.830;12.082;2023-11-21T03:58:24;98822.94;;;22.81;38.10
16100;BME280;8154;50.830;12.082;2023-11-21T04:00:50;98823.94;;;22.93;37.91
16100;BME280;8154;50.830;12.082;2023-11-21T04:03:16;98827.03;;;22.97;37.90
16100;BME280;8154;50.830;12.082;2023-11-21T04:05:42;98826.19;;;22.96;37.92
16100;BME280;8154;50.830;12.082;2023-11-21T04:08:09;98824.78;;;23.00;37.87
16100;BME280;8154;50.830;12.082;2023-11-21T04:10:35;98836.44;;;22.99;37.66
16100;BME280;8154;50.830;12.082;2023-11-21T04:13:01;98845.69;;;22.90;38.01
16100;BME280;8154;50.830;12.082;2023-11-21T04:15:28;98843.44;;;22.87;38.16
16100;BME280;8154;50.830;12.082;2023-11-21T04:17:54;98842.41;;;22.75;38.40
16100;BME280;8154;50.830;12.082;2023-11-21T04:20:22;98841.16;;;22.71;38.49
16100;BME280;8154;50.830;12.082;2023-11-21T04:22:50;98824.38;;;22.64;38.34
16100;BME280;8154;50.830;12.082;2023-11-21T04:25:16;98842.00;;;22.78;38.21
16100;BME280;8154;50.830;12.082;2023-11-21T04:27:45;98850.00;;;22.71;38.32
16100;BME280;8154;50.830;12.082;2023-11-21T04:30:12;98853.47;;;22.72;38.38
16100;BME280;8154;50.830;12.082;2023-11-21T04:32:39;98841.78;;;22.73;38.26
16100;BME280;8154;50.830;12.082;2023-11-21T04:35:08;98849.38;;;22.76;38.20
16100;BME280;8154;50.830;12.082;2023-11-21T04:37:35;98849.78;;;22.73;38.19
16100;BME280;8154;50.830;12.082;2023-11-21T04:40:02;98842.41;;;22.68;38.36
16100;BME280;8154;50.830;12.082;2023-11-21T04:42:35;98853.47;;;22.85;38.03
16100;BME280;8154;50.830;12.082;2023-11-21T04:45:03;98849.38;;;22.89;37.90
16100;BME280;8154;50.830;12.082;2023-11-21T04:47:36;98854.72;;;22.96;38.08
16100;BME280;8154;50.830;12.082;2023-11-21T04:50:03;98856.34;;;22.90;37.96
16100;BME280;8154;50.830;12.082;2023-11-21T04:52:30;98862.06;;;22.87;38.14
16100;BME280;8154;50.830;12.082;2023-11-21T04:54:56;98859.63;;;22.86;37.94
16100;BME280;8154;50.830;12.082;2023-11-21T04:57:24;98864.72;;;22.74;38.27
16100;BME280;8154;50.830;12.082;2023-11-21T04:59:50;98863.72;;;22.68;38.47
16100;BME280;8154;50.830;12.082;2023-11-21T05:02:16;98871.91;;;22.73;38.42
16100;BME280;8154;50.830;12.082;2023-11-21T05:04:45;98866.19;;;22.77;38.37
16100;BME280;8154;50.830;12.082;2023-11-21T05:07:12;98861.88;;;22.69;38.41
16100;BME280;8154;50.830;12.082;2023-11-21T05:09:43;98874.81;;;22.79;38.26
16100;BME280;8154;50.830;12.082;2023-11-21T05:12:12;98876.63;;;22.71;38.45
16100;BME280;8154;50.830;12.082;2023-11-21T05:14:39;98871.91;;;22.67;38.60
16100;BME280;8154;50.830;12.082;2023-11-21T05:17:06;98878.47;;;22.84;38.17
16100;BME280;8154;50.830;12.082;2023-11-21T05:19:34;98876.44;;;22.86;38.17
16100;BME280;8154;50.830;12.082;2023-11-21T05:22:02;98883.41;;;22.94;38.01
16100;BME280;8154;50.830;12.082;2023-11-21T05:24:28;98880.53;;;22.95;38.02
16100;BME280;8154;50.830;12.082;2023-11-21T05:26:55;98881.16;;;22.91;37.97
16100;BME280;8154;50.830;12.082;2023-11-21T05:29:22;98881.97;;;22.85;38.08
16100;BME280;8154;50.830;12.082;2023-11-21T05:31:49;98891.00;;;22.77;38.37
16100;BME280;8154;50.830;12.082;2023-11-21T05:34:15;98889.13;;;22.71;38.40
16100;BME280;8154;50.830;12.082;2023-11-21T05:36:43;98887.47;;;22.70;38.33
16100;BME280;8154;50.830;12.082;2023-11-21T05:39:11;98883.41;;;22.67;38.45
16100;BME280;8154;50.830;12.082;2023-11-21T05:41:39;98890.97;;;22.70;38.40
16100;BME280;8154;50.830;12.082;2023-11-21T05:44:05;98898.13;;;22.70;38.28
16100;BME280;8154;50.830;12.082;2023-11-21T05:46:31;98895.69;;;22.82;38.25
16100;BME280;8154;50.830;12.082;2023-11-21T05:48:59;98893.84;;;22.89;38.08
16100;BME280;8154;50.830;12.082;2023-11-21T05:51:27;98896.09;;;22.98;37.92
16100;BME280;8154;50.830;12.082;2023-11-21T05:53:53;98897.31;;;23.02;37.76
16100;BME280;8154;50.830;12.082;2023-11-21T05:56:20;98900.59;;;22.98;37.61
16100;BME280;8154;50.830;12.082;2023-11-21T05:58:46;98898.97;;;22.90;37.93
16100;BME280;8154;50.830;12.082;2023-11-21T06:01:12;98903.06;;;22.80;38.13
16100;BME280;8154;50.830;12.082;2023-11-21T06:03:55;98879.69;;;22.62;38.51
16100;BME280;8154;50.830;12.082;2023-11-21T06:06:22;98897.31;;;22.69;38.55
16100;BME280;8154;50.830;12.082;2023-11-21T06:09:11;98888.72;;;22.61;38.59
16100;BME280;8154;50.830;12.082;2023-11-21T06:11:37;98906.53;;;22.67;38.52
16100;BME280;8154;50.830;12.082;2023-11-21T06:14:04;98913.09;;;22.71;38.39
16100;BME280;8154;50.830;12.082;2023-11-21T06:16:34;98908.38;;;22.66;38.53
16100;BME280;8154;50.830;12.082;2023-11-21T06:19:02;98910.44;;;22.64;38.63
16100;BME280;8154;50.830;12.082;2023-11-21T06:21:29;98913.94;;;22.78;38.36
16100;BME280;8154;50.830;12.082;2023-11-21T06:23:55;98913.75;;;22.86;37.98
16100;BME280;8154;50.830;12.082;2023-11-21T06:26:25;98920.69;;;22.81;38.31
16100;BME280;8154;50.830;12.082;2023-11-21T06:28:52;98925.41;;;22.72;38.30
16100;BME280;8154;50.830;12.082;2023-11-21T06:31:20;98937.28;;;22.83;38.17
16100;BME280;8154;50.830;12.082;2023-11-21T06:33:48;98931.34;;;22.87;38.13
16100;BME280;8154;50.830;12.082;2023-11-21T06:36:15;98936.66;;;22.81;38.07
16100;BME280;8154;50.830;12.082;2023-11-21T06:38:44;98951.03;;;22.80;38.20
16100;BME280;8154;50.830;12.082;2023-11-21T06:41:14;98946.28;;;22.68;38.34
16100;BME280;8154;50.830;12.082;2023-11-21T06:43:41;98958.78;;;22.68;38.52
16100;BME280;8154;50.830;12.082;2023-11-21T06:46:16;98938.66;;;22.52;38.66
16100;BME280;8154;50.830;12.082;2023-11-21T06:48:45;98952.44;;;22.69;38.47
16100;BME280;8154;50.830;12.082;2023-11-21T06:51:11;98939.53;;;22.59;38.51
16100;BME280;8154;50.830;12.082;2023-11-21T06:53:42;98953.25;;;22.63;38.67
16100;BME280;8154;50.830;12.082;2023-11-21T06:56:17;98960.03;;;22.72;38.52
16100;BME280;8154;50.830;12.082;2023-11-21T06:58:45;98960.66;;;22.87;38.13
16100;BME280;8154;50.830;12.082;2023-11-21T07:01:14;98944.44;;;22.62;38.34
16100;BME280;8154;50.830;12.082;2023-11-21T07:03:41;98972.13;;;22.74;38.30
16100;BME280;8154;50.830;12.082;2023-11-21T07:06:09;98970.72;;;22.79;38.15
16100;BME280;8154;50.830;12.082;2023-11-21T07:08:37;98980.75;;;22.90;38.21
16100;BME280;8154;50.830;12.082;2023-11-21T07:11:04;98988.53;;;22.85;38.11
16100;BME280;8154;50.830;12.082;2023-11-21T07:13:31;98997.56;;;22.77;38.36
16100;BME280;8154;50.830;12.082;2023-11-21T07:15:59;98994.88;;;22.70;38.54
16100;BME280;8154;50.830;12.082;2023-11-21T07:18:27;98988.28;;;22.66;38.56
16100;BME280;8154;50.830;12.082;2023-11-21T07:20:53;98979.03;;;22.56;38.60
16100;BME280;8154;50.830;12.082;2023-11-21T07:23:19;98996.69;;;22.63;38.65
16100;BME280;8154;50.830;12.082;2023-11-21T07:25:49;99007.53;;;22.62;38.60
16100;BME280;8154;50.830;12.082;2023-11-21T07:28:16;99002.19;;;22.62;38.56
16100;BME280;8154;50.830;12.082;2023-11-21T07:30:42;99003.03;;;22.62;38.79
16100;BME280;8154;50.830;12.082;2023-11-21T07:33:13;99000.00;;;22.72;38.40
16100;BME280;8154;50.830;12.082;2023-11-21T07:35:39;99005.31;;;22.72;38.29
16100;BME280;8154;50.830;12.082;2023-11-21T07:38:05;99000.19;;;22.70;38.39
16100;BME280;8154;50.830;12.082;2023-11-21T07:40:32;99006.72;;;22.68;38.59
16100;BME280;8154;50.830;12.082;2023-11-21T07:42:58;99011.25;;;22.81;38.16
16100;BME280;8154;50.830;12.082;2023-11-21T07:45:27;99010.06;;;22.90;38.14
16100;BME280;8154;50.830;12.082;2023-11-21T07:48:03;99010.88;;;22.84;38.09
16100;BME280;8154;50.830;12.082;2023-11-21T07:50:30;99011.44;;;22.72;38.47
16100;BME280;8154;50.830;12.082;2023-11-21T07:53:01;99013.50;;;22.70;38.40
16100;BME280;8154;50.830;12.082;2023-11-21T07:55:33;99020.88;;;22.68;38.58
16100;BME280;8154;50.830;12.082;2023-11-21T07:57:59;99021.69;;;22.62;38.67
16100;BME280;8154;50.830;12.082;2023-11-21T08:00:25;99031.09;;;22.65;38.67
16100;BME280;8154;50.830;12.082;2023-11-21T08:02:55;99027.06;;;22.76;38.35
16100;BME280;8154;50.830;12.082;2023-11-21T08:05:22;99037.91;;;22.81;38.17
16100;BME280;8154;50.830;12.082;2023-11-21T08:07:52;99036.84;;;22.68;38.56
16100;BME280;8154;50.830;12.082;2023-11-21T08:10:19;99036.63;;;22.57;38.77
16100;BME280;8154;50.830;12.082;2023-11-21T08:12:48;99043.22;;;22.74;38.31
16100;BME280;8154;50.830;12.082;2023-11-21T08:15:17;99037.09;;;22.87;38.15
16100;BME280;8154;50.830;12.082;2023-11-21T08:17:55;99036.72;;;22.96;38.01
16100;BME280;8154;50.830;12.082;2023-11-21T08:20:22;99041.25;;;22.96;38.04
16100;BME280;8154;50.830;12.082;2023-11-21T08:22:50;99052.88;;;22.75;38.27
16100;BME280;8154;50.830;12.082;2023-11-21T08:25:19;99048.16;;;22.77;38.16
16100;BME280;8154;50.830;12.082;2023-11-21T08:27:49;99052.22;;;22.66;38.65
16100;BME280;8154;50.830;12.082;2023-11-21T08:30:16;99055.69;;;22.60;38.53
16100;BME280;8154;50.830;12.082;2023-11-21T08:32:45;99051.78;;;22.56;38.60
16100;BME280;8154;50.830;12.082;2023-11-21T08:35:12;99056.06;;;22.57;38.89
16100;BME280;8154;50.830;12.082;2023-11-21T08:37:39;99059.16;;;22.61;38.66
16100;BME280;8154;50.830;12.082;2023-11-21T08:40:09;99064.28;;;22.62;38.75
16100;BME280;8154;50.830;12.082;2023-11-21T08:42:40;99064.94;;;22.64;38.57
16100;BME280;8154;50.830;12.082;2023-11-21T08:45:08;99069.66;;;22.69;38.45
16100;BME280;8154;50.830;12.082;2023-11-21T08:47:37;99075.81;;;22.76;38.51
16100;BME280;8154;50.830;12.082;2023-11-21T08:50:05;99064.38;;;22.89;38.21
16100;BME280;8154;50.830;12.082;2023-11-21T08:52:38;99060.44;;;22.71;38.40
16100;BME280;8154;50.830;12.082;2023-11-21T08:55:08;99063.06;;;22.65;38.42
16100;BME280;8154;50.830;12.082;2023-11-21T08:57:38;99068.44;;;22.78;38.18
16100;BME280;8154;50.830;12.082;2023-11-21T09:00:05;99063.09;;;22.71;38.27
16100;BME280;8154;50.830;12.082;2023-11-21T09:02:40;99058.09;;;22.55;38.56
16100;BME280;8154;50.830;12.082;2023-11-21T09:05:14;99069.78;;;22.54;38.80
16100;BME280;8154;50.830;12.082;2023-11-21T09:07:46;99073.72;;;22.58;38.78
16100;BME280;8154;50.830;12.082;2023-11-21T09:10:14;99065.50;;;22.53;38.81
16100;BME280;8154;50.830;12.082;2023-11-21T09:12:40;99077.16;;;22.52;38.83
16100;BME280;8154;50.830;12.082;2023-11-21T09:15:28;99084.16;;;22.60;38.79
16100;BME280;8154;50.830;12.082;2023-11-21T09:17:55;99082.94;;;22.62;38.58
16100;BME280;8154;50.830;12.082;2023-11-21T09:20:23;99079.69;;;22.67;38.47
16100;BME280;8154;50.830;12.082;2023-11-21T09:22:49;99089.09;;;22.63;38.46
16100;BME280;8154;50.830;12.082;2023-11-21T09:25:16;99080.91;;;22.64;38.45
16100;BME280;8154;50.830;12.082;2023-11-21T09:27:44;99088.34;;;22.76;38.54
16100;BME280;8154;50.830;12.082;2023-11-21T09:30:12;99099.38;;;22.79;38.19
16100;BME280;8154;50.830;12.082;2023-11-21T09:32:42;99095.91;;;22.72;38.30
16100;BME280;8154;50.830;12.082;2023-11-21T09:35:15;99101.38;;;22.64;38.66
16100;BME280;8154;50.830;12.082;2023-11-21T09:37:43;99103.03;;;22.65;38.53
16100;BME280;8154;50.830;12.082;2023-11-21T09:40:13;99100.97;;;22.60;38.72
16100;BME280;8154;50.830;12.082;2023-11-21T09:42:56;99103.59;;;22.54;38.82
16100;BME280;8154;50.830;12.082;2023-11-21T09:45:48;99117.72;;;22.54;38.85
16100;BME280;8154;50.830;12.082;2023-11-21T09:48:21;99105.81;;;22.50;38.87
16100;BME280;8154;50.830;12.082;2023-11-21T09:50:53;99111.38;;;22.55;38.88
16100;BME280;8154;50.830;12.082;2023-11-21T09:53:22;99104.44;;;22.61;38.62
16100;BME280;8154;50.830;12.082;2023-11-21T09:55:58;99108.16;;;22.60;38.80
16100;BME280;8154;50.830;12.082;2023-11-21T09:58:27;99111.78;;;22.52;38.76
16100;BME280;8154;50.830;12.082;2023-11-21T10:00:55;99109.94;;;22.53;38.60
16100;BME280;8154;50.830;12.082;2023-11-21T10:03:39;99121.28;;;22.68;38.71
16100;BME280;8154;50.830;12.082;2023-11-21T10:06:08;99114.75;;;22.70;38.41
16100;BME280;8154;50.830;12.082;2023-11-21T10:08:38;99102.19;;;22.58;38.67
16100;BME280;8154;50.830;12.082;2023-11-21T10:11:05;99109.97;;;22.59;38.70
16100;BME280;8154;50.830;12.082;2023-11-21T10:13:35;99113.69;;;22.65;38.64
16100;BME280;8154;50.830;12.082;2023-11-21T10:16:03;99120.63;;;22.59;38.75
16100;BME280;8154;50.830;12.082;2023-11-21T10:18:52;99113.22;;;22.55;38.96
16100;BME280;8154;50.830;12.082;2023-11-21T10:21:23;99113.16;;;22.48;38.81
16100;BME280;8154;50.830;12.082;2023-11-21T10:23:52;99112.00;;;22.57;38.77
16100;BME280;8154;50.830;12.082;2023-11-21T10:26:22;99101.88;;;22.46;38.91
16100;BME280;8154;50.830;12.082;2023-11-21T10:29:02;99118.56;;;22.55;38.99
16100;BME280;8154;50.830;12.082;2023-11-21T10:31:33;99123.88;;;22.55;38.82
16100;BME280;8154;50.830;12.082;2023-11-21T10:34:17;99128.63;;;22.59;38.88
16100;BME280;8154;50.830;12.082;2023-11-21T10:36:45;99129.66;;;22.58;38.76
16100;BME280;8154;50.830;12.082;2023-11-21T10:39:21;99135.78;;;22.59;38.90
16100;BME280;8154;50.830;12.082;2023-11-21T10:41:50;99137.22;;;22.55;38.81
16100;BME280;8154;50.830;12.082;2023-11-21T10:44:18;99139.13;;;22.67;38.63
16100;BME280;8154;50.830;12.082;2023-11-21T10:46:53;99140.50;;;22.63;38.68
16100;BME280;8154;50.830;12.082;2023-11-21T10:49:26;99138.69;;;22.64;38.52
16100;BME280;8154;50.830;12.082;2023-11-21T10:51:53;99143.19;;;22.63;38.82
16100;BME280;8154;50.830;12.082;2023-11-21T10:54:21;99131.59;;;22.50;38.75
16100;BME280;8154;50.830;12.082;2023-11-21T10:56:50;99145.00;;;22.56;38.87
16100;BME280;8154;50.830;12.082;2023-11-21T10:59:18;99145.63;;;22.58;38.69
16100;BME280;8154;50.830;12.082;2023-11-21T11:01:47;99143.34;;;22.55;38.84
16100;BME280;8154;50.830;12.082;2023-11-21T11:04:19;99133.84;;;22.46;38.87
16100;BME280;8154;50.830;12.082;2023-11-21T11:07:06;99142.53;;;22.55;38.83
16100;BME280;8154;50.830;12.082;2023-11-21T11:09:35;99149.06;;;22.52;38.95
16100;BME280;8154;50.830;12.082;2023-11-21T11:12:02;99149.50;;;22.56;38.85
16100;BME280;8154;50.830;12.082;2023-11-21T11:14:33;99149.94;;;22.59;38.75
16100;BME280;8154;50.830;12.082;2023-11-21T11:17:19;99150.97;;;22.58;38.91
16100;BME280;8154;50.830;12.082;2023-11-21T11:19:51;99141.53;;;22.62;38.63
16100;BME280;8154;50.830;12.082;2023-11-21T11:22:30;99151.56;;;22.60;38.83
16100;BME280;8154;50.830;12.082;2023-11-21T11:28:27;99154.06;;;22.68;38.60
16100;BME280;8154;50.830;12.082;2023-11-21T11:33:50;99156.47;;;22.57;38.96
16100;BME280;8154;50.830;12.082;2023-11-21T11:36:29;99164.03;;;22.53;38.97
16100;BME280;8154;50.830;12.082;2023-11-21T11:39:00;99168.88;;;22.50;39.14
16100;BME280;8154;50.830;12.082;2023-11-21T11:41:31;99173.38;;;22.49;39.15
16100;BME280;8154;50.830;12.082;2023-11-21T11:44:03;99169.38;;;22.53;38.93
16100;BME280;8154;50.830;12.082;2023-11-21T11:46:42;99175.13;;;22.57;38.98
16100;BME280;8154;50.830;12.082;2023-11-21T11:49:08;99177.97;;;22.55;38.78
16100;BME280;8154;50.830;12.082;2023-11-21T11:51:35;99174.94;;;22.58;38.84
16100;BME280;8154;50.830;12.082;2023-11-21T11:54:34;99177.19;;;22.61;38.85
16100;BME280;8154;50.830;12.082;2023-11-21T11:57:02;99175.34;;;22.62;38.75
16100;BME280;8154;50.830;12.082;2023-11-21T11:59:28;99162.84;;;22.62;38.58
16100;BME280;8154;50.830;12.082;2023-11-21T12:02:04;99172.72;;;22.68;38.64
16100;BME280;8154;50.830;12.082;2023-11-21T12:04:33;99179.09;;;22.74;38.38
16100;BME280;8154;50.830;12.082;2023-11-21T12:07:01;99177.41;;;22.66;38.53
16100;BME280;8154;50.830;12.082;2023-11-21T12:13:10;99170.56;;;22.51;38.80
16100;BME280;8154;50.830;12.082;2023-11-21T12:15:38;99185.69;;;22.50;38.98
16100;BME280;8154;50.830;12.082;2023-11-21T12:18:06;99184.88;;;22.50;38.99
16100;BME280;8154;50.830;12.082;2023-11-21T12:20:33;99190.03;;;22.51;39.02
16100;BME280;8154;50.830;12.082;2023-11-21T12:23:05;99188.59;;;22.55;38.84
16100;BME280;8154;50.830;12.082;2023-11-21T12:25:32;99191.09;;;22.57;38.66
16100;BME280;8154;50.830;12.082;2023-11-21T12:28:00;99192.94;;;22.56;38.70
16100;BME280;8154;50.830;12.082;2023-11-21T12:30:32;99203.59;;;22.56;38.96
16100;BME280;8154;50.830;12.082;2023-11-21T12:33:02;99201.78;;;22.63;38.85
16100;BME280;8154;50.830;12.082;2023-11-21T12:35:32;99210.84;;;22.69;38.81
16100;BME280;8154;50.830;12.082;2023-11-21T12:38:04;99215.50;;;22.60;38.82
16100;BME280;8154;50.830;12.082;2023-11-21T12:40:32;99220.00;;;22.60;38.96
16100;BME280;8154;50.830;12.082;2023-11-21T12:43:00;99208.78;;;22.71;38.66
16100;BME280;8154;50.830;12.082;2023-11-21T12:45:28;99229.16;;;22.79;38.30
16100;BME280;8154;50.830;12.082;2023-11-21T12:48:00;99230.09;;;22.64;38.64
16100;BME280;8154;50.830;12.082;2023-11-21T12:50:31;99224.25;;;22.54;38.98
16100;BME280;8154;50.830;12.082;2023-11-21T12:53:01;99233.72;;;22.57;38.92
16100;BME280;8154;50.830;12.082;2023-11-21T12:55:32;99212.28;;;22.44;38.85
16100;BME280;8154;50.830;12.082;2023-11-21T12:58:02;99241.28;;;22.53;38.89
16100;BME280;8154;50.830;12.082;2023-11-21T13:00:42;99249.88;;;22.55;38.78
16100;BME280;8154;50.830;12.082;2023-11-21T13:03:11;99241.88;;;22.55;39.00
16100;BME280;8154;50.830;12.082;2023-11-21T13:05:41;99238.59;;;22.53;38.79
16100;BME280;8154;50.830;12.082;2023-11-21T13:08:18;99242.97;;;22.61;38.79
16100;BME280;8154;50.830;12.082;2023-11-21T13:10:53;99252.00;;;22.66;38.81
16100;BME280;8154;50.830;12.082;2023-11-21T13:13:25;99252.44;;;22.70;38.52
16100;BME280;8154;50.830;12.082;2023-11-21T13:16:17;99243.84;;;22.74;38.34
16100;BME280;8154;50.830;12.082;2023-11-21T13:18:46;99256.72;;;22.64;38.73